Time;durP1;ratioP1;P1;durP2;ratioP2;P2;SDS_P1;SDS_P2;PMS_P1;PMS_P2;Temp;Humidity;BMP_temperature;BMP_pressure;BME280_temperature;BME280_humidity;BME280_pressure;Samples;Min_cycle;Max_cycle;Signal;HPM_P1;HPM_P2
2022/02/19 00:01:07;;;;;;;3.20;1.07;;;;;;;;;;6280155;22;20152;-83
2022/02/19 00:03:33;;;;;;;4.23;0.83;;;;;;;;;;6279236;22;20514;-84
2022/02/19 00:05:59;;;;;;;4.40;0.93;;;;;;;;;;6281472;22;20593;-84
2022/02/19 00:08:25;;;;;;;3.40;1.20;;;;;;;;;;6280343;22;20916;-84
2022/02/19 00:10:51;;;;;;;4.47;1.30;;;;;;;;;;6280343;22;20178;-85
2022/02/19 00:13:17;;;;;;;5.67;1.10;;;;;;;;;;6278628;22;20156;-83
2022/02/19 00:15:43;;;;;;;5.93;1.70;;;;;;;;;;6279855;22;20176;-86
2022/02/19 00:18:11;;;;;;;6.03;1.03;;;;;;;;;;6278694;22;20545;-85
2022/02/19 00:20:37;;;;;;;4.77;1.20;;;;;;;;;;6278924;22;20481;-85
2022/02/19 00:23:03;;;;;;;4.93;1.00;;;;;;;;;;6279190;22;20151;-85
2022/02/19 00:25:29;;;;;;;7.57;1.50;;;;;;;;;;6280419;22;20208;-84
2022/02/19 00:27:55;;;;;;;4.43;1.10;;;;;;;;;;6281521;22;20235;-85
2022/02/19 00:30:21;;;;;;;4.07;1.27;;;;;;;;;;6280665;22;20144;-85
2022/02/19 00:32:48;;;;;;;6.90;1.50;;;;;;;;;;6280291;22;20162;-84
2022/02/19 00:35:14;;;;;;;6.93;1.00;;;;;;;;;;6280202;22;20168;-84
2022/02/19 00:37:40;;;;;;;6.90;1.20;;;;;;;;;;6279909;22;20483;-84
2022/02/19 00:40:08;;;;;;;5.77;1.10;;;;;;;;;;6280456;22;20164;-85
2022/02/19 00:42:34;;;;;;;3.97;0.90;;;;;;;;;;6279927;22;20144;-84
2022/02/19 00:45:00;;;;;;;4.23;1.23;;;;;;;;;;6279979;22;20205;-84
2022/02/19 00:47:26;;;;;;;6.17;1.60;;;;;;;;;;6279486;22;20492;-82
2022/02/19 00:49:52;;;;;;;6.60;1.10;;;;;;;;;;6279569;22;20164;-84
2022/02/19 00:52:18;;;;;;;4.57;0.80;;;;;;;;;;6280462;22;20155;-84
2022/02/19 00:54:44;;;;;;;5.63;1.20;;;;;;;;;;6279840;22;20147;-83
2022/02/19 00:57:10;;;;;;;5.73;1.90;;;;;;;;;;6279967;22;20175;-84
2022/02/19 00:59:36;;;;;;;4.97;1.30;;;;;;;;;;6279144;22;20476;-84
2022/02/19 01:02:02;;;;;;;3.47;1.10;;;;;;;;;;6278949;22;20532;-82
2022/02/19 01:04:28;;;;;;;5.00;1.30;;;;;;;;;;6278697;22;20151;-84
2022/02/19 01:06:54;;;;;;;5.97;1.40;;;;;;;;;;6278718;22;20202;-84
2022/02/19 01:09:21;;;;;;;5.33;1.30;;;;;;;;;;6281473;22;20194;-84
2022/02/19 01:11:47;;;;;;;5.50;1.33;;;;;;;;;;6281840;22;20136;-84
2022/02/19 01:14:13;;;;;;;3.43;1.00;;;;;;;;;;6280930;22;20159;-85
2022/02/19 01:16:39;;;;;;;9.03;1.47;;;;;;;;;;6281138;22;20218;-84
2022/02/19 01:19:05;;;;;;;4.53;1.37;;;;;;;;;;6281992;22;20179;-85
2022/02/19 01:21:31;;;;;;;4.63;1.37;;;;;;;;;;6280964;22;20157;-84
2022/02/19 01:23:57;;;;;;;3.60;1.10;;;;;;;;;;6281670;22;20176;-84
2022/02/19 01:26:23;;;;;;;4.67;1.17;;;;;;;;;;6281474;22;20185;-84
2022/02/19 01:28:49;;;;;;;5.63;1.20;;;;;;;;;;6280591;22;20164;-83
2022/02/19 01:31:15;;;;;;;3.07;1.03;;;;;;;;;;6281597;22;20675;-84
2022/02/19 01:33:41;;;;;;;6.53;1.33;;;;;;;;;;6281817;22;20153;-83
2022/02/19 01:36:07;;;;;;;5.43;1.00;;;;;;;;;;6278843;22;20187;-84
2022/02/19 01:38:33;;;;;;;7.33;1.00;;;;;;;;;;6280438;22;20168;-84
2022/02/19 01:40:59;;;;;;;3.73;1.03;;;;;;;;;;6281484;22;20147;-83
2022/02/19 01:43:25;;;;;;;3.10;1.10;;;;;;;;;;6278716;22;20175;-84
2022/02/19 01:45:51;;;;;;;6.07;1.10;;;;;;;;;;6279971;22;20598;-84
2022/02/19 01:48:19;;;;;;;5.07;1.30;;;;;;;;;;6281230;22;20194;-84
2022/02/19 01:50:45;;;;;;;6.97;1.20;;;;;;;;;;6280804;22;20597;-84
2022/02/19 01:53:11;;;;;;;5.50;1.30;;;;;;;;;;6280884;22;20152;-84
2022/02/19 01:55:37;;;;;;;7.10;1.40;;;;;;;;;;6280658;22;20621;-83
2022/02/19 01:58:05;;;;;;;4.27;1.00;;;;;;;;;;6279257;22;20176;-84
2022/02/19 02:00:32;;;;;;;5.77;1.00;;;;;;;;;;6280797;22;20190;-84
2022/02/19 02:02:58;;;;;;;4.53;1.27;;;;;;;;;;6280616;22;20156;-84
2022/02/19 02:05:24;;;;;;;5.33;1.40;;;;;;;;;;6281166;22;20310;-84
2022/02/19 02:07:51;;;;;;;4.67;1.20;;;;;;;;;;6280524;22;20156;-84
2022/02/19 02:10:17;;;;;;;4.73;1.70;;;;;;;;;;6280573;22;20165;-84
2022/02/19 02:12:43;;;;;;;6.17;1.80;;;;;;;;;;6279196;22;20155;-83
2022/02/19 02:15:24;;;;;;;8.97;1.43;;;;;;;;;;6280450;22;20191;-84
2022/02/19 02:17:50;;;;;;;6.93;1.93;;;;;;;;;;6280257;22;20144;-84
2022/02/19 02:20:17;;;;;;;6.27;1.43;;;;;;;;;;6280243;22;20141;-85
2022/02/19 02:22:43;;;;;;;4.50;1.20;;;;;;;;;;6278884;22;20168;-83
2022/02/19 02:25:11;;;;;;;3.77;1.13;;;;;;;;;;6281006;22;20651;-83
2022/02/19 02:27:37;;;;;;;7.00;1.13;;;;;;;;;;6280730;22;20160;-84
2022/02/19 02:30:04;;;;;;;5.33;1.13;;;;;;;;;;6280690;22;20164;-83
2022/02/19 02:32:30;;;;;;;4.80;1.43;;;;;;;;;;6280978;22;20156;-84
2022/02/19 02:34:56;;;;;;;4.60;1.63;;;;;;;;;;6279050;22;20182;-84
2022/02/19 02:37:25;;;;;;;4.73;1.60;;;;;;;;;;6280816;22;20175;-84
2022/02/19 02:39:51;;;;;;;8.80;2.33;;;;;;;;;;6279077;22;20174;-84
2022/02/19 02:42:18;;;;;;;3.60;1.33;;;;;;;;;;6277619;22;20144;-84
2022/02/19 02:44:44;;;;;;;4.47;1.10;;;;;;;;;;6276201;22;20231;-85
2022/02/19 02:47:10;;;;;;;6.43;1.33;;;;;;;;;;6276348;22;20175;-84
2022/02/19 02:49:37;;;;;;;5.07;1.20;;;;;;;;;;6279140;22;20172;-83
2022/02/19 02:52:04;;;;;;;6.17;1.00;;;;;;;;;;6280489;22;20504;-84
2022/02/19 02:54:30;;;;;;;7.13;1.13;;;;;;;;;;6280792;22;20155;-84
2022/02/19 02:56:56;;;;;;;7.90;1.43;;;;;;;;;;6279132;22;20266;-84
2022/02/19 02:59:22;;;;;;;14.13;2.70;;;;;;;;;;6280502;22;20506;-84
2022/02/19 03:01:48;;;;;;;4.17;1.30;;;;;;;;;;6279817;22;20144;-83
2022/02/19 03:04:14;;;;;;;7.33;1.23;;;;;;;;;;6279752;22;20172;-84
2022/02/19 03:06:40;;;;;;;5.40;1.53;;;;;;;;;;6280225;22;20159;-84
2022/02/19 03:09:06;;;;;;;5.70;1.50;;;;;;;;;;6278053;22;20664;-84
2022/02/19 03:11:32;;;;;;;4.53;1.10;;;;;;;;;;6279960;22;20193;-84
2022/02/19 03:13:58;;;;;;;7.43;1.60;;;;;;;;;;6281614;22;20157;-85
2022/02/19 03:16:27;;;;;;;6.47;1.50;;;;;;;;;;6276595;22;20190;-85
2022/02/19 03:18:53;;;;;;;5.53;1.60;;;;;;;;;;6280472;22;20226;-84
2022/02/19 03:21:19;;;;;;;8.03;1.70;;;;;;;;;;6251137;22;20537;-85
2022/02/19 03:23:45;;;;;;;5.53;1.27;;;;;;;;;;6279802;22;20225;-84
2022/02/19 03:26:11;;;;;;;7.23;1.60;;;;;;;;;;6280705;22;20149;-85
2022/02/19 03:28:38;;;;;;;10.00;1.43;;;;;;;;;;6281615;22;20544;-84
2022/02/19 03:31:04;;;;;;;7.07;1.13;;;;;;;;;;6280189;22;20156;-84
2022/02/19 03:33:30;;;;;;;8.60;1.50;;;;;;;;;;6281972;22;20183;-83
2022/02/19 03:35:56;;;;;;;5.47;1.30;;;;;;;;;;6281458;22;20259;-85
2022/02/19 03:38:22;;;;;;;6.67;1.47;;;;;;;;;;6280552;22;20207;-84
2022/02/19 03:40:48;;;;;;;11.37;2.10;;;;;;;;;;6280920;22;20608;-84
2022/02/19 03:43:14;;;;;;;5.53;1.70;;;;;;;;;;6281869;22;20141;-84
2022/02/19 03:45:43;;;;;;;8.40;1.80;;;;;;;;;;6281182;22;20144;-84
2022/02/19 03:48:09;;;;;;;8.47;1.53;;;;;;;;;;6280894;22;20259;-84
2022/02/19 03:50:38;;;;;;;12.67;1.40;;;;;;;;;;6282240;22;20478;-83
2022/02/19 03:53:04;;;;;;;9.50;1.40;;;;;;;;;;6282136;22;20148;-84
2022/02/19 03:55:31;;;;;;;5.10;1.20;;;;;;;;;;6280328;22;20179;-84
2022/02/19 03:57:57;;;;;;;4.50;1.13;;;;;;;;;;6281711;22;20577;-85
2022/02/19 04:00:23;;;;;;;5.20;1.40;;;;;;;;;;6281407;22;20198;-84
2022/02/19 04:02:49;;;;;;;9.63;1.40;;;;;;;;;;6282291;22;20198;-84
2022/02/19 04:05:15;;;;;;;7.53;1.67;;;;;;;;;;6282505;22;20152;-84
2022/02/19 04:07:42;;;;;;;6.43;1.03;;;;;;;;;;6282860;22;20182;-84
2022/02/19 04:10:08;;;;;;;6.73;1.80;;;;;;;;;;6281670;22;20175;-84
2022/02/19 04:12:34;;;;;;;6.33;1.40;;;;;;;;;;6281890;22;20173;-82
2022/02/19 04:15:00;;;;;;;5.03;1.87;;;;;;;;;;6282114;22;20689;-84
2022/02/19 04:17:26;;;;;;;9.27;1.57;;;;;;;;;;6281983;22;20194;-85
2022/02/19 04:19:53;;;;;;;6.27;1.40;;;;;;;;;;6281796;22;20172;-84
2022/02/19 04:22:23;;;;;;;5.10;1.50;;;;;;;;;;6280940;22;20148;-84
2022/02/19 04:24:49;;;;;;;5.27;1.40;;;;;;;;;;6278308;22;20160;-84
2022/02/19 04:27:16;;;;;;;5.70;1.70;;;;;;;;;;6276602;22;20155;-84
2022/02/19 04:29:44;;;;;;;9.13;1.37;;;;;;;;;;6277195;22;20164;-84
2022/02/19 04:32:11;;;;;;;8.77;1.40;;;;;;;;;;6277836;22;20604;-86
2022/02/19 04:34:37;;;;;;;6.37;1.40;;;;;;;;;;6277187;22;20479;-83
2022/02/19 04:37:04;;;;;;;9.07;1.77;;;;;;;;;;6278929;22;20174;-85
2022/02/19 04:39:30;;;;;;;8.13;1.33;;;;;;;;;;6279520;22;20175;-85
2022/02/19 04:42:02;;;;;;;5.97;2.13;;;;;;;;;;6278948;22;20141;-84
2022/02/19 04:44:28;;;;;;;4.60;1.03;;;;;;;;;;6279396;22;20141;-84
2022/02/19 04:46:54;;;;;;;5.07;1.30;;;;;;;;;;6279330;22;20167;-84
2022/02/19 04:49:20;;;;;;;6.27;1.50;;;;;;;;;;6278105;22;20271;-84
2022/02/19 04:51:46;;;;;;;6.67;1.97;;;;;;;;;;6278303;22;20148;-85
2022/02/19 04:54:12;;;;;;;7.30;1.17;;;;;;;;;;6252049;22;20160;-83
2022/02/19 04:56:38;;;;;;;7.83;1.43;;;;;;;;;;6278724;22;20171;-84
2022/02/19 04:59:04;;;;;;;9.63;2.00;;;;;;;;;;6277265;22;20212;-86
2022/02/19 05:01:30;;;;;;;6.23;1.33;;;;;;;;;;6278042;22;20232;-84
2022/02/19 05:03:57;;;;;;;11.50;1.60;;;;;;;;;;6279264;22;20474;-83
2022/02/19 05:06:23;;;;;;;8.30;1.60;;;;;;;;;;6280388;22;20485;-85
2022/02/19 05:08:49;;;;;;;6.53;2.10;;;;;;;;;;6279905;22;20171;-84
2022/02/19 05:11:15;;;;;;;7.13;1.17;;;;;;;;;;6279385;22;20541;-84
2022/02/19 05:13:41;;;;;;;7.27;1.60;;;;;;;;;;6281805;22;20685;-84
2022/02/19 05:16:07;;;;;;;4.83;1.30;;;;;;;;;;6278504;22;20176;-84
2022/02/19 05:18:33;;;;;;;9.37;1.57;;;;;;;;;;6281314;22;20167;-84
2022/02/19 05:20:59;;;;;;;9.47;1.80;;;;;;;;;;6281123;22;20586;-84
2022/02/19 05:23:25;;;;;;;7.07;1.47;;;;;;;;;;6281511;22;20145;-84
2022/02/19 05:25:51;;;;;;;7.47;1.27;;;;;;;;;;6280867;22;20203;-84
2022/02/19 05:28:17;;;;;;;5.47;1.60;;;;;;;;;;6280874;22;20172;-85
2022/02/19 05:30:43;;;;;;;8.33;2.10;;;;;;;;;;6279389;22;20163;-84
2022/02/19 05:33:09;;;;;;;7.33;1.40;;;;;;;;;;6281400;22;20144;-84
2022/02/19 05:35:35;;;;;;;6.77;1.40;;;;;;;;;;6280822;22;20193;-84
2022/02/19 05:38:01;;;;;;;6.47;1.70;;;;;;;;;;6279108;22;20159;-84
2022/02/19 05:40:27;;;;;;;3.87;1.30;;;;;;;;;;6279375;22;20147;-84
2022/02/19 05:42:53;;;;;;;14.83;1.63;;;;;;;;;;6281154;22;20149;-84
2022/02/19 05:45:19;;;;;;;7.53;1.70;;;;;;;;;;6281150;22;20151;-84
2022/02/19 05:47:45;;;;;;;7.43;1.70;;;;;;;;;;6281608;22;20460;-84
2022/02/19 05:50:11;;;;;;;7.67;1.50;;;;;;;;;;6278703;22;20160;-84
2022/02/19 05:52:37;;;;;;;6.53;1.83;;;;;;;;;;6281915;22;20158;-84
2022/02/19 05:55:03;;;;;;;7.83;1.70;;;;;;;;;;6283405;22;20155;-83
2022/02/19 05:57:29;;;;;;;11.87;1.93;;;;;;;;;;6281100;22;20242;-84
2022/02/19 05:59:55;;;;;;;15.00;2.17;;;;;;;;;;6282822;22;20168;-84
2022/02/19 06:02:21;;;;;;;10.73;2.00;;;;;;;;;;6282540;22;20555;-84
2022/02/19 06:04:47;;;;;;;16.90;2.67;;;;;;;;;;6280738;22;20183;-84
2022/02/19 06:07:13;;;;;;;11.33;1.67;;;;;;;;;;6282397;22;20235;-84
2022/02/19 06:09:39;;;;;;;3.83;1.40;;;;;;;;;;6282124;22;20262;-84
2022/02/19 06:12:05;;;;;;;9.63;1.57;;;;;;;;;;6283305;22;20589;-84
2022/02/19 06:14:31;;;;;;;13.63;2.37;;;;;;;;;;6282073;22;20572;-84
2022/02/19 06:16:57;;;;;;;4.83;1.30;;;;;;;;;;6282126;22;20164;-84
2022/02/19 06:19:23;;;;;;;8.50;1.90;;;;;;;;;;6282599;22;20166;-84
2022/02/19 06:21:50;;;;;;;5.63;1.33;;;;;;;;;;6282328;22;20178;-84
2022/02/19 06:24:16;;;;;;;9.67;1.40;;;;;;;;;;6280768;22;20152;-84
2022/02/19 06:26:42;;;;;;;14.07;2.27;;;;;;;;;;6282742;22;20150;-84
2022/02/19 06:29:08;;;;;;;9.63;1.70;;;;;;;;;;6280354;22;20203;-84
2022/02/19 06:31:34;;;;;;;13.17;2.70;;;;;;;;;;6281858;22;20182;-84
2022/02/19 06:34:00;;;;;;;13.57;1.50;;;;;;;;;;6281381;22;20146;-84
2022/02/19 06:36:26;;;;;;;15.47;2.13;;;;;;;;;;6282595;22;20168;-84
2022/02/19 06:38:52;;;;;;;11.73;2.20;;;;;;;;;;6282783;22;20198;-84
2022/02/19 06:41:18;;;;;;;6.50;2.53;;;;;;;;;;6282630;22;20145;-84
2022/02/19 06:43:44;;;;;;;15.87;2.20;;;;;;;;;;6280277;22;20616;-84
2022/02/19 06:46:10;;;;;;;10.83;2.43;;;;;;;;;;6282465;22;20152;-84
2022/02/19 06:48:36;;;;;;;13.03;2.30;;;;;;;;;;6280048;22;20183;-83
2022/02/19 06:51:02;;;;;;;12.47;1.53;;;;;;;;;;6279900;22;20154;-84
2022/02/19 06:53:28;;;;;;;9.57;1.70;;;;;;;;;;6281958;22;20201;-83
2022/02/19 06:55:54;;;;;;;14.33;2.43;;;;;;;;;;6282477;22;20219;-84
2022/02/19 06:58:20;;;;;;;11.77;2.13;;;;;;;;;;6282488;22;20171;-84
2022/02/19 07:00:51;;;;;;;11.13;2.00;;;;;;;;;;6281088;22;20617;-84
2022/02/19 07:03:17;;;;;;;14.43;2.70;;;;;;;;;;6282008;22;20189;-84
2022/02/19 07:05:44;;;;;;;14.10;2.67;;;;;;;;;;6281782;22;20151;-84
2022/02/19 07:08:10;;;;;;;10.07;1.87;;;;;;;;;;6281812;22;20173;-84
2022/02/19 07:10:35;;;;;;;7.93;1.77;;;;;;;;;;6281943;22;20159;-84
2022/02/19 07:13:01;;;;;;;14.10;2.13;;;;;;;;;;6282566;22;20486;-84
2022/02/19 07:15:27;;;;;;;10.07;2.17;;;;;;;;;;6282226;22;20183;-84
2022/02/19 07:17:54;;;;;;;9.03;2.27;;;;;;;;;;6278962;22;20584;-84
2022/02/19 07:20:21;;;;;;;10.13;2.70;;;;;;;;;;6280299;22;20159;-83
2022/02/19 07:22:47;;;;;;;8.50;1.97;;;;;;;;;;6280157;22;20142;-83
2022/02/19 07:25:14;;;;;;;15.13;2.80;;;;;;;;;;6280020;22;20450;-84
2022/02/19 07:27:40;;;;;;;14.07;2.50;;;;;;;;;;6279273;22;20201;-84
2022/02/19 07:30:12;;;;;;;7.67;1.90;;;;;;;;;;6279460;22;20190;-84
2022/02/19 07:32:38;;;;;;;10.20;2.53;;;;;;;;;;6279605;22;20136;-83
2022/02/19 07:35:05;;;;;;;8.33;2.40;;;;;;;;;;6280855;22;20163;-84
2022/02/19 07:37:31;;;;;;;6.40;2.00;;;;;;;;;;6281990;22;20461;-84
2022/02/19 07:39:57;;;;;;;12.87;1.90;;;;;;;;;;6280313;22;20222;-84
2022/02/19 07:42:23;;;;;;;11.47;2.07;;;;;;;;;;6280955;22;20151;-84
2022/02/19 07:44:51;;;;;;;11.17;2.20;;;;;;;;;;6281848;22;20174;-84
2022/02/19 07:47:21;;;;;;;7.07;1.80;;;;;;;;;;6279130;22;20151;-83
2022/02/19 07:58:19;;;;;;;11.63;2.80;;;;;;;;;;6278028;22;20185;-86
2022/02/19 08:00:51;;;;;;;11.50;2.37;;;;;;;;;;6279227;22;20608;-84
2022/02/19 08:03:22;;;;;;;12.33;2.87;;;;;;;;;;6277618;22;20151;-84
2022/02/19 08:05:48;;;;;;;13.17;2.30;;;;;;;;;;6278008;22;20856;-85
2022/02/19 08:08:14;;;;;;;5.37;2.00;;;;;;;;;;6278074;22;20172;-84
2022/02/19 08:10:41;;;;;;;12.60;2.90;;;;;;;;;;6279162;22;20159;-85
2022/02/19 08:13:07;;;;;;;13.57;2.73;;;;;;;;;;6276195;22;20600;-85
2022/02/19 08:15:35;;;;;;;10.93;2.57;;;;;;;;;;6277391;22;20195;-82
2022/02/19 08:18:02;;;;;;;8.13;2.60;;;;;;;;;;6279523;22;20159;-83
2022/02/19 08:20:28;;;;;;;8.27;1.90;;;;;;;;;;6279215;22;20206;-83
2022/02/19 08:22:54;;;;;;;6.50;2.13;;;;;;;;;;6279611;22;20148;-83
2022/02/19 08:25:20;;;;;;;7.47;1.40;;;;;;;;;;6280317;22;20141;-83
2022/02/19 08:27:46;;;;;;;8.70;2.33;;;;;;;;;;6279147;22;20153;-82
2022/02/19 08:30:12;;;;;;;12.80;2.63;;;;;;;;;;6279603;22;20210;-84
2022/02/19 08:32:38;;;;;;;7.30;2.23;;;;;;;;;;6279912;22;20159;-85
2022/02/19 08:35:04;;;;;;;13.30;1.93;;;;;;;;;;6278865;22;20140;-84
2022/02/19 08:37:31;;;;;;;7.47;1.43;;;;;;;;;;6279275;22;20141;-84
2022/02/19 08:39:57;;;;;;;7.53;1.77;;;;;;;;;;6280034;22;20168;-84
2022/02/19 08:42:24;;;;;;;7.33;2.00;;;;;;;;;;6277135;22;20585;-84
2022/02/19 08:44:50;;;;;;;7.43;1.47;;;;;;;;;;6278803;22;20143;-83
2022/02/19 08:47:16;;;;;;;11.33;2.00;;;;;;;;;;6275723;22;20186;-83
2022/02/19 08:49:42;;;;;;;6.97;1.60;;;;;;;;;;6278341;22;20172;-83
2022/02/19 08:52:08;;;;;;;9.67;2.40;;;;;;;;;;6280689;22;20144;-83
2022/02/19 08:54:35;;;;;;;5.33;1.40;;;;;;;;;;6279825;22;20531;-82
2022/02/19 08:57:01;;;;;;;7.73;1.40;;;;;;;;;;6279996;22;20192;-84
2022/02/19 08:59:27;;;;;;;6.77;1.80;;;;;;;;;;6279965;22;20166;-83
2022/02/19 09:01:53;;;;;;;13.87;2.23;;;;;;;;;;6279369;22;20163;-83
2022/02/19 09:04:19;;;;;;;13.97;2.30;;;;;;;;;;6278448;22;20601;-84
2022/02/19 09:06:45;;;;;;;7.33;2.00;;;;;;;;;;6280082;22;20152;-84
2022/02/19 09:09:12;;;;;;;15.43;1.70;;;;;;;;;;6279458;22;20176;-84
2022/02/19 09:11:38;;;;;;;8.13;1.53;;;;;;;;;;6278497;22;20210;-84
2022/02/19 09:14:05;;;;;;;11.13;1.80;;;;;;;;;;6277906;22;20145;-83
2022/02/19 09:16:34;;;;;;;13.97;2.00;;;;;;;;;;6279317;22;20180;-84
2022/02/19 09:19:00;;;;;;;10.43;1.93;;;;;;;;;;6279458;22;20248;-82
2022/02/19 09:21:28;;;;;;;7.77;1.77;;;;;;;;;;6279955;22;20164;-82
2022/02/19 09:23:54;;;;;;;7.37;1.40;;;;;;;;;;6278998;22;20141;-82
2022/02/19 09:26:21;;;;;;;7.20;1.93;;;;;;;;;;6279666;22;20148;-82
2022/02/19 09:28:47;;;;;;;7.87;1.50;;;;;;;;;;6281107;22;20218;-82
2022/02/19 09:31:13;;;;;;;7.70;1.70;;;;;;;;;;6281421;22;20243;-85
2022/02/19 09:33:39;;;;;;;6.83;1.73;;;;;;;;;;6281814;22;20199;-81
2022/02/19 09:36:05;;;;;;;5.50;1.60;;;;;;;;;;6283174;22;20234;-81
2022/02/19 09:38:31;;;;;;;5.87;1.57;;;;;;;;;;6282485;22;20167;-82
2022/02/19 09:41:00;;;;;;;10.20;1.87;;;;;;;;;;6282135;22;20148;-83
2022/02/19 09:43:26;;;;;;;8.67;1.47;;;;;;;;;;6282278;22;20152;-82
2022/02/19 09:45:52;;;;;;;9.87;1.97;;;;;;;;;;6282476;22;20164;-83
2022/02/19 09:48:18;;;;;;;7.90;2.00;;;;;;;;;;6280036;22;20275;-84
2022/02/19 09:50:45;;;;;;;4.80;1.60;;;;;;;;;;6282628;22;20586;-83
2022/02/19 09:53:11;;;;;;;7.60;1.87;;;;;;;;;;6295249;22;20157;-83
2022/02/19 09:55:38;;;;;;;6.47;1.63;;;;;;;;;;6293744;22;20231;-84
2022/02/19 09:58:05;;;;;;;6.90;1.67;;;;;;;;;;6297067;22;20152;-83
2022/02/19 10:00:43;;;;;;;10.30;2.03;;;;;;;;;;6297293;22;20157;-84
2022/02/19 10:03:12;;;;;;;6.77;1.97;;;;;;;;;;6296127;22;20175;-84
2022/02/19 10:05:38;;;;;;;9.70;2.10;;;;;;;;;;6294645;22;20160;-85
2022/02/19 10:08:08;;;;;;;10.77;2.20;;;;;;;;;;6285047;22;21869;-84
2022/02/19 10:10:36;;;;;;;6.30;1.77;;;;;;;;;;6285715;22;20167;-83
2022/02/19 10:13:02;;;;;;;7.23;2.20;;;;;;;;;;6283925;22;20159;-83
2022/02/19 10:15:40;;;;;;;10.63;1.50;;;;;;;;;;6283407;22;20172;-84
2022/02/19 10:18:21;;;;;;;5.60;1.30;;;;;;;;;;6284428;22;20179;-83
2022/02/19 10:20:48;;;;;;;7.87;1.83;;;;;;;;;;6283133;22;20141;-82
2022/02/19 10:23:14;;;;;;;5.17;1.40;;;;;;;;;;6283853;22;20152;-83
2022/02/19 10:31:39;;;;;;;5.00;1.50;;;;;;;;;;6188067;23;20241;-81
2022/02/19 10:34:46;;;;;;;8.90;1.87;;;;;;;;;;6137817;23;20151;-81
2022/02/19 10:37:31;;;;;;;8.77;1.67;;;;;;;;;;6157949;23;20567;-83
2022/02/19 10:46:11;;;;;;;4.70;1.30;;;;;;;;;;6251307;23;20179;-82
2022/02/19 10:48:48;;;;;;;6.57;1.17;;;;;;;;;;6250640;23;20155;-82
2022/02/19 10:54:33;;;;;;;6.50;1.43;;;;;;;;;;6217659;23;20679;-82
2022/02/19 10:57:09;;;;;;;4.20;1.10;;;;;;;;;;6250829;23;20169;-82
2022/02/19 11:00:09;;;;;;;8.13;1.40;;;;;;;;;;6251858;23;20191;-82
2022/02/19 11:03:16;;;;;;;4.83;0.70;;;;;;;;;;6158276;22;20628;-82
2022/02/19 11:06:02;;;;;;;3.20;1.33;;;;;;;;;;6156944;23;20234;-82
2022/02/19 11:08:45;;;;;;;5.73;1.20;;;;;;;;;;6166436;23;20609;-82
2022/02/19 11:11:25;;;;;;;3.73;1.17;;;;;;;;;;6249694;23;20134;-82
2022/02/19 11:14:12;;;;;;;2.90;0.73;;;;;;;;;;6247376;23;20145;-82
2022/02/19 11:16:55;;;;;;;2.33;0.80;;;;;;;;;;6247245;23;20175;-82
2022/02/19 11:19:29;;;;;;;4.13;1.03;;;;;;;;;;6245987;23;20154;-82
2022/02/19 11:25:24;;;;;;;2.73;0.70;;;;;;;;;;6230270;23;20156;-83
2022/02/19 11:28:25;;;;;;;4.87;1.07;;;;;;;;;;6243019;23;20161;-82
2022/02/19 11:31:00;;;;;;;3.13;1.07;;;;;;;;;;6240043;22;20209;-82
2022/02/19 11:33:56;;;;;;;2.67;0.90;;;;;;;;;;6246493;23;20149;-82
2022/02/19 11:36:36;;;;;;;;;;;;;;;;;;;;;
2022/02/19 11:39:06;;;;;;;4.47;1.00;;;;;;;;;;6253142;23;20151;-82
2022/02/19 11:44:29;;;;;;;5.47;1.23;;;;;;;;;;6253704;23;20143;-82
2022/02/19 11:47:31;;;;;;;;;;;;;;;;;;;;;
2022/02/19 11:50:20;;;;;;;3.77;1.10;;;;;;;;;;6253431;23;20169;-82
2022/02/19 11:53:05;;;;;;;5.63;1.20;;;;;;;;;;6254442;23;20657;-82
2022/02/19 11:55:32;;;;;;;3.17;1.03;;;;;;;;;;6252756;23;20175;-83
2022/02/19 11:58:09;;;;;;;3.60;1.00;;;;;;;;;;6253486;23;20614;-83
2022/02/19 12:01:22;;;;;;;4.30;0.97;;;;;;;;;;6249983;23;20232;-83
2022/02/19 12:03:48;;;;;;;3.90;1.27;;;;;;;;;;6250439;23;20180;-82
2022/02/19 12:06:20;;;;;;;4.03;1.23;;;;;;;;;;6249226;23;20248;-83
2022/02/19 12:08:54;;;;;;;5.80;1.13;;;;;;;;;;6219126;23;20157;-83
2022/02/19 12:11:45;;;;;;;6.23;1.30;;;;;;;;;;6250276;22;20148;-83
2022/02/19 12:14:44;;;;;;;;;;;;;;;;;;;;;
2022/02/19 12:17:42;;;;;;;7.03;1.40;;;;;;;;;;6255060;23;20192;-83
2022/02/19 12:20:50;;;;;;;3.83;1.07;;;;;;;;;;6264251;23;20138;-83
2022/02/19 12:23:22;;;;;;;4.73;1.10;;;;;;;;;;6251665;23;20231;-83
2022/02/19 12:26:24;;;;;;;4.70;1.13;;;;;;;;;;6253127;23;20180;-83
2022/02/19 12:29:13;;;;;;;4.10;1.10;;;;;;;;;;6252028;23;20165;-83
2022/02/19 12:31:50;;;;;;;3.63;1.10;;;;;;;;;;6251483;23;20149;-83
2022/02/19 12:34:29;;;;;;;2.93;1.07;;;;;;;;;;6253252;23;20139;-83
2022/02/19 12:37:20;;;;;;;;;;;;;;;;;;;;;
2022/02/19 12:40:17;;;;;;;;;;;;;;;;;;;;;
2022/02/19 12:43:20;;;;;;;6.33;1.40;;;;;;;;;;6241458;22;20232;-83
2022/02/19 12:45:53;;;;;;;2.13;0.90;;;;;;;;;;6252012;22;20197;-83
2022/02/19 12:48:35;;;;;;;;;;;;;;;;;;;;;
2022/02/19 12:54:42;;;;;;;3.27;1.23;;;;;;;;;;6119007;23;20156;-83
2022/02/19 13:00:53;;;;;;;4.37;1.60;;;;;;;;;;6234255;23;20151;-82
2022/02/19 13:03:30;;;;;;;2.57;0.80;;;;;;;;;;6159986;23;20162;-82
2022/02/19 13:06:23;;;;;;;4.30;1.60;;;;;;;;;;6163194;23;20182;-82
2022/02/19 13:09:12;;;;;;;1.90;1.07;;;;;;;;;;6244736;22;20158;-82
2022/02/19 13:11:41;;;;;;;3.03;1.17;;;;;;;;;;6253254;23;20246;-82
2022/02/19 13:14:18;;;;;;;3.90;0.80;;;;;;;;;;6254475;23;20160;-81
2022/02/19 13:20:21;;;;;;;4.77;1.40;;;;;;;;;;6233058;23;20204;-82
2022/02/19 13:23:08;;;;;;;3.33;1.33;;;;;;;;;;6252244;23;20148;-82
2022/02/19 13:26:12;;;;;;;2.53;1.00;;;;;;;;;;6251298;23;20243;-82
2022/02/19 13:35:21;;;;;;;3.13;1.20;;;;;;;;;;6252100;23;20164;-81
2022/02/19 13:37:54;;;;;;;2.73;1.00;;;;;;;;;;6250864;22;20179;-82
2022/02/19 13:40:36;;;;;;;4.80;1.30;;;;;;;;;;6250184;23;20151;-82
2022/02/19 13:46:28;;;;;;;1.30;0.70;;;;;;;;;;6251796;23;20176;-82
2022/02/19 14:01:33;;;;;;;3.57;1.60;;;;;;;;;;6238882;23;20164;-82
2022/02/19 14:04:22;;;;;;;6.70;2.53;;;;;;;;;;6250048;23;20157;-81
2022/02/19 14:07:22;;;;;;;5.30;2.33;;;;;;;;;;6133962;23;20171;-81
2022/02/19 14:10:41;;;;;;;7.20;3.83;;;;;;;;;;6252694;22;20541;-81
2022/02/19 14:13:17;;;;;;;5.90;2.27;;;;;;;;;;6135149;23;20217;-81
2022/02/19 14:16:12;;;;;;;7.60;1.20;;;;;;;;;;6135781;23;20190;-82
2022/02/19 14:18:41;;;;;;;2.67;0.97;;;;;;;;;;6098229;23;20152;-82
2022/02/19 14:21:19;;;;;;;3.03;1.30;;;;;;;;;;6137991;23;20153;-81
2022/02/19 14:23:49;;;;;;;2.77;1.10;;;;;;;;;;6189318;22;20166;-81
2022/02/19 14:26:32;;;;;;;3.10;1.43;;;;;;;;;;6256302;23;20180;-82
2022/02/19 14:29:18;;;;;;;2.83;1.10;;;;;;;;;;6255898;23;20172;-82
2022/02/19 14:31:58;;;;;;;2.63;0.70;;;;;;;;;;6254983;23;20138;-82
2022/02/19 14:34:35;;;;;;;2.27;0.90;;;;;;;;;;6253084;23;20138;-81
2022/02/19 14:37:23;;;;;;;;;;;;;;;;;;;;;
2022/02/19 14:40:15;;;;;;;3.33;1.00;;;;;;;;;;6256395;23;20164;-81
2022/02/19 14:42:46;;;;;;;3.80;1.20;;;;;;;;;;6162043;23;20643;-82
2022/02/19 14:45:21;;;;;;;4.67;1.47;;;;;;;;;;6249030;22;20167;-81
2022/02/19 14:47:47;;;;;;;6.03;1.40;;;;;;;;;;6255896;23;20134;-82
2022/02/19 14:50:15;;;;;;;2.37;0.90;;;;;;;;;;6255272;23;20153;-82
2022/02/19 14:52:41;;;;;;;4.23;1.33;;;;;;;;;;6255900;23;20154;-82
2022/02/19 14:55:10;;;;;;;2.70;1.07;;;;;;;;;;6255164;23;20239;-81
2022/02/19 14:57:39;;;;;;;2.80;1.10;;;;;;;;;;6256414;23;20226;-82
2022/02/19 15:00:06;;;;;;;2.03;0.90;;;;;;;;;;6252900;23;20166;-82
2022/02/19 15:02:32;;;;;;;7.70;1.23;;;;;;;;;;6258087;22;20151;-82
2022/02/19 15:04:59;;;;;;;4.47;1.13;;;;;;;;;;6255457;23;20157;-83
2022/02/19 15:07:25;;;;;;;2.50;0.80;;;;;;;;;;6256932;23;20286;-82
2022/02/19 15:09:51;;;;;;;3.20;0.90;;;;;;;;;;6254518;23;20141;-81
2022/02/19 15:12:17;;;;;;;4.53;0.77;;;;;;;;;;6254161;23;20157;-82
2022/02/19 15:14:43;;;;;;;2.53;0.70;;;;;;;;;;6254377;23;20145;-82
2022/02/19 15:17:09;;;;;;;2.53;0.77;;;;;;;;;;6248562;23;20180;-81
2022/02/19 15:19:36;;;;;;;4.23;1.07;;;;;;;;;;6251010;23;20223;-81
2022/02/19 15:22:03;;;;;;;2.53;1.30;;;;;;;;;;6252444;23;20160;-82
2022/02/19 15:24:29;;;;;;;3.87;1.23;;;;;;;;;;6261720;23;20152;-80
2022/02/19 15:26:55;;;;;;;3.37;0.97;;;;;;;;;;6263829;23;20628;-81
2022/02/19 15:29:23;;;;;;;2.87;0.97;;;;;;;;;;6256471;23;20240;-82
2022/02/19 15:31:49;;;;;;;2.03;1.27;;;;;;;;;;6251144;23;20157;-82
2022/02/19 15:34:15;;;;;;;2.93;1.40;;;;;;;;;;6250920;23;20165;-81
2022/02/19 15:36:41;;;;;;;3.63;1.53;;;;;;;;;;6248488;23;20185;-82
2022/02/19 15:39:07;;;;;;;3.07;1.67;;;;;;;;;;6251154;23;20170;-81
2022/02/19 15:41:33;;;;;;;4.53;2.33;;;;;;;;;;6250950;22;20168;-82
2022/02/19 15:43:59;;;;;;;3.33;1.00;;;;;;;;;;6252033;23;20527;-81
2022/02/19 15:46:28;;;;;;;3.97;1.10;;;;;;;;;;6248052;23;20169;-81
2022/02/19 15:48:55;;;;;;;3.53;0.90;;;;;;;;;;6251647;22;20293;-81
2022/02/19 15:51:21;;;;;;;4.40;1.40;;;;;;;;;;6249399;23;20153;-81
2022/02/19 15:53:47;;;;;;;3.93;0.93;;;;;;;;;;6251255;23;20169;-82
2022/02/19 15:56:22;;;;;;;4.67;1.33;;;;;;;;;;5073962;27;1403112;-82
2022/02/19 15:58:51;;;;;;;4.17;1.07;;;;;;;;;;5085982;28;20600;-83
2022/02/19 16:01:17;;;;;;;1.40;0.80;;;;;;;;;;5082608;28;20182;-82
2022/02/19 16:03:43;;;;;;;2.40;0.83;;;;;;;;;;5064758;28;20205;-82
2022/02/19 16:06:09;;;;;;;2.77;1.03;;;;;;;;;;5060583;28;20204;-82
2022/02/19 16:08:35;;;;;;;2.83;0.77;;;;;;;;;;5083303;28;20193;-82